Time;durP1;ratioP1;P1;durP2;ratioP2;P2;SDS_P1;SDS_P2;PMS_P1;PMS_P2;Temp;Humidity;BMP_temperature;BMP_pressure;BME280_temperature;BME280_humidity;BME280_pressure;Samples;Min_cycle;Max_cycle;Signal;HPM_P1;HPM_P2
2022/01/23 00:02:26;;;;;;;36.90;28.27;;;;;;;6.38;76.78;103342.69;3584659;40;20171;-61
2022/01/23 00:04:51;;;;;;;39.33;29.10;;;;;;;6.33;77.46;103335.56;3585711;40;20049;-61
2022/01/23 00:07:17;;;;;;;44.08;30.52;;;;;;;6.34;76.49;103343.56;3589466;40;20553;-61
2022/01/23 00:09:44;;;;;;;43.65;32.45;;;;;;;6.34;77.38;103338.22;3579438;40;20402;-61
2022/01/23 00:12:15;;;;;;;38.28;27.98;;;;;;;6.32;76.95;103331.13;3589672;40;20048;-61
2022/01/23 00:17:33;;;;;;;41.42;29.67;;;;;;;6.32;77.28;103326.69;3590003;40;20327;-61
2022/01/23 00:20:05;;;;;;;49.42;36.40;;;;;;;6.32;77.38;103328.47;3588418;40;20142;-64
2022/01/23 00:30:34;;;;;;;56.50;37.50;;;;;;;6.26;77.47;103319.56;3581875;40;20055;-61
2022/01/23 00:33:05;;;;;;;58.55;41.67;;;;;;;6.21;77.28;103313.34;3572827;40;20096;-61
2022/01/23 00:35:34;;;;;;;71.20;45.22;;;;;;;6.25;77.29;103317.81;3584516;40;20422;-62
2022/01/23 00:38:04;;;;;;;60.05;37.95;;;;;;;6.31;77.60;103315.97;3584642;40;20054;-62
2022/01/23 00:40:33;;;;;;;43.28;31.17;;;;;;;6.31;77.61;103314.19;3583720;40;20369;-61
2022/01/23 00:43:00;;;;;;;52.95;37.65;;;;;;;6.27;77.36;103321.34;3584151;40;20044;-61
2022/01/23 00:48:07;;;;;;;41.20;31.63;;;;;;;6.29;77.76;103313.34;3584813;40;20052;-62
2022/01/23 00:50:37;;;;;;;36.28;28.77;;;;;;;6.27;77.16;103310.66;3584595;40;20044;-61
2022/01/23 00:53:08;;;;;;;35.60;27.40;;;;;;;6.11;77.77;103276.88;3584536;40;20050;-61
2022/01/23 00:55:34;;;;;;;37.33;26.75;;;;;;;6.08;77.57;103271.56;3584478;40;20348;-61
2022/01/23 00:57:59;;;;;;;37.28;27.23;;;;;;;6.21;78.23;103296.44;3586931;40;20080;-62
2022/01/23 01:00:25;;;;;;;37.78;27.60;;;;;;;5.87;77.96;103240.47;3590390;40;20056;-62
2022/01/23 01:02:51;;;;;;;47.50;33.67;;;;;;;6.25;77.19;103307.13;3590050;40;20298;-62
2022/01/23 01:05:17;;;;;;;40.28;31.25;;;;;;;6.22;77.81;103293.78;3585033;40;20068;-61
2022/01/23 01:07:43;;;;;;;40.70;28.40;;;;;;;6.30;77.24;103306.19;3584903;40;20071;-62
2022/01/23 01:10:22;;;;;;;52.85;38.28;;;;;;;6.32;77.16;103309.78;3585319;40;20410;-62
2022/01/23 01:12:50;;;;;;;49.38;37.55;;;;;;;6.28;77.50;103299.09;3586793;40;20058;-62
2022/01/23 01:31:34;;;;;;;37.28;28.00;;;;;;;6.35;77.56;103313.31;3585611;40;20092;-61
2022/01/23 01:39:00;;;;;;;37.90;26.80;;;;;;;6.33;77.56;103308.88;3582141;40;20084;-62
2022/01/23 01:41:26;;;;;;;39.28;27.25;;;;;;;6.32;77.69;103317.78;3585652;40;20048;-62
2022/01/23 01:43:54;;;;;;;41.60;27.23;;;;;;;6.27;77.42;103307.09;3586014;40;20044;-61
2022/01/23 01:46:20;;;;;;;38.83;27.52;;;;;;;6.35;77.28;103323.13;3585809;40;20060;-62
2022/01/23 01:48:46;;;;;;;40.30;26.98;;;;;;;6.34;77.58;103314.19;3585270;40;20401;-62
2022/01/23 01:51:16;;;;;;;37.65;28.23;;;;;;;6.31;77.50;103315.97;3585084;40;20056;-61
2022/01/23 01:53:49;;;;;;;35.25;26.05;;;;;;;6.31;77.46;103322.22;3586051;40;20045;-61
2022/01/23 01:56:16;;;;;;;37.83;26.77;;;;;;;6.30;77.70;103320.44;3585532;40;20334;-61
2022/01/23 02:02:46;;;;;;;35.47;27.17;;;;;;;6.24;77.97;103326.69;3584920;40;20291;-62
2022/01/23 02:09:33;;;;;;;36.30;27.05;;;;;;;6.28;77.31;103328.47;3585222;40;20157;-61
2022/01/23 02:17:23;;;;;;;39.63;26.85;;;;;;;6.32;77.39;103325.78;3587062;40;20323;-61
2022/01/23 02:25:39;;;;;;;36.67;25.48;;;;;;;6.21;77.72;103300.00;3585208;40;20095;-61
2022/01/23 02:53:14;;;;;;;39.17;23.88;;;;;;;6.15;78.02;103283.09;3577718;40;20311;-62
2022/01/23 02:55:35;;;;;;;36.40;25.65;;;;;;;6.18;77.95;103278.63;3586527;40;20366;-62
2022/01/23 02:58:04;;;;;;;31.02;24.35;;;;;;;6.20;77.72;103281.31;3585192;40;20095;-61
2022/01/23 03:00:35;;;;;;;33.67;24.85;;;;;;;6.21;77.68;103283.09;3581731;40;20056;-61
2022/01/23 03:03:10;;;;;;;33.80;25.63;;;;;;;6.19;77.94;103275.09;3584516;40;20120;-61
2022/01/23 03:05:39;;;;;;;31.20;24.27;;;;;;;6.19;77.97;103284.91;3581901;40;20055;-62
2022/01/23 03:10:44;;;;;;;37.30;25.45;;;;;;;6.20;77.87;103282.19;3584827;40;20375;-61
2022/01/23 03:26:34;;;;;;;;;;;;;;;6.21;77.41;103289.31;3585148;40;20126;-61
2022/01/23 03:29:05;;;;;;;35.00;24.35;;;;;;;6.25;77.88;103291.09;3584161;40;19939;-60
2022/01/23 03:31:43;;;;;;;32.63;23.48;;;;;;;6.21;77.55;103286.63;3584901;40;20044;-61
2022/01/23 03:34:10;;;;;;;34.38;26.00;;;;;;;6.28;77.39;103295.53;3584582;40;20048;-61
2022/01/23 03:36:37;;;;;;;36.70;25.42;;;;;;;6.30;77.52;103298.19;3584187;40;20448;-62
2022/01/23 03:39:07;;;;;;;35.05;25.13;;;;;;;6.23;77.40;103292.88;3570557;40;20457;-62
2022/01/23 03:41:42;;;;;;;34.97;25.90;;;;;;;6.28;77.65;103307.09;3584798;40;20576;-62
2022/01/23 03:44:10;;;;;;;32.72;24.98;;;;;;;6.19;77.59;103279.56;3584629;40;20052;-62
2022/01/23 03:51:55;;;;;;;41.05;26.55;;;;;;;6.19;77.96;103284.91;3584486;40;20080;-61
2022/01/23 03:54:23;;;;;;;37.88;26.30;;;;;;;6.22;77.20;103284.88;3584484;40;20063;-61
2022/01/23 03:56:48;;;;;;;37.28;26.60;;;;;;;6.26;77.56;103298.19;3585996;40;20044;-61
2022/01/23 03:59:14;;;;;;;39.30;27.23;;;;;;;6.24;77.45;103299.97;3575265;40;20064;-61
2022/01/23 04:01:39;;;;;;;39.30;27.10;;;;;;;6.15;77.51;103286.69;3584394;40;20044;-63
2022/01/23 04:04:16;;;;;;;37.17;27.00;;;;;;;6.22;77.44;103296.44;3582117;40;20048;-62
2022/01/23 04:06:42;;;;;;;35.92;26.88;;;;;;;6.24;77.32;103299.09;3581921;40;20040;-61
2022/01/23 04:09:07;;;;;;;36.75;26.42;;;;;;;6.25;76.85;103311.56;3584097;40;20317;-62
2022/01/23 04:11:33;;;;;;;37.45;26.92;;;;;;;6.04;77.47;103272.47;3583860;40;20067;-62
2022/01/23 04:14:05;;;;;;;38.13;26.38;;;;;;;6.22;76.97;103304.47;3584249;40;20052;-61
2022/01/23 04:16:48;;;;;;;39.63;27.95;;;;;;;6.25;77.35;103312.47;3584764;40;20098;-62
2022/01/23 04:45:18;;;;;;;39.53;27.02;;;;;;;6.17;77.16;103302.69;3586213;40;20109;-59
2022/01/23 05:00:00;;;;;;;40.25;26.50;;;;;;;6.15;77.90;103308.06;3585811;40;20051;-61
2022/01/23 05:05:15;;;;;;;38.28;26.35;;;;;;;6.25;77.58;103323.16;3573798;40;20168;-62
2022/01/23 05:07:45;;;;;;;39.95;27.90;;;;;;;6.24;77.24;103321.34;3586115;40;20084;-62
2022/01/23 05:10:11;;;;;;;38.00;26.92;;;;;;;6.24;77.18;103318.69;3585060;40;20052;-61
2022/01/23 05:12:37;;;;;;;38.72;26.55;;;;;;;6.04;77.10;103284.03;3585564;40;20059;-61
2022/01/23 05:15:05;;;;;;;41.28;27.88;;;;;;;6.22;77.98;103317.81;3585912;40;20294;-62
2022/01/23 05:17:32;;;;;;;40.38;26.80;;;;;;;6.13;77.68;103300.94;3586172;40;20048;-65
2022/01/23 05:19:57;;;;;;;40.15;28.75;;;;;;;6.19;77.66;103309.81;3585651;40;20056;-62
2022/01/23 05:24:56;;;;;;;41.08;28.05;;;;;;;6.20;77.69;103311.56;3585646;40;20040;-63
2022/01/23 05:27:23;;;;;;;40.33;29.48;;;;;;;6.25;77.07;103319.59;3585506;40;20049;-62
2022/01/23 05:29:50;;;;;;;40.15;28.15;;;;;;;6.14;78.31;103302.69;3586336;40;20080;-63
2022/01/23 05:32:16;;;;;;;40.17;27.20;;;;;;;6.25;77.61;103325.81;3585450;40;20408;-62
2022/01/23 05:34:44;;;;;;;43.45;28.70;;;;;;;6.16;77.71;103301.81;3586281;40;20052;-61
2022/01/23 05:37:09;;;;;;;42.67;27.92;;;;;;;6.24;77.72;103321.34;3585131;40;20056;-62
2022/01/23 05:39:36;;;;;;;45.28;29.00;;;;;;;6.29;77.30;103334.69;3585740;40;20052;-62
2022/01/23 05:42:07;;;;;;;37.30;26.70;;;;;;;6.31;76.94;103326.66;3585652;40;20114;-62
2022/01/23 05:44:38;;;;;;;42.88;28.38;;;;;;;6.10;76.74;103296.50;3585787;40;20044;-62
2022/01/23 05:47:06;;;;;;;43.33;28.10;;;;;;;6.17;77.66;103302.69;3585063;40;20084;-65
2022/01/23 05:49:32;;;;;;;40.75;28.02;;;;;;;6.19;77.47;103311.59;3585417;40;20188;-64
2022/01/23 05:51:59;;;;;;;39.20;28.05;;;;;;;6.24;77.62;103318.69;3585407;40;20383;-60
2022/01/23 05:54:26;;;;;;;37.95;28.55;;;;;;;6.16;77.72;103304.47;3583962;40;20458;-62
2022/01/23 05:56:52;;;;;;;42.38;29.42;;;;;;;6.20;77.33;103300.91;3585570;40;20070;-62
2022/01/23 05:59:20;;;;;;;39.05;28.85;;;;;;;6.10;77.71;103285.81;3585603;40;20100;-62
2022/01/23 06:01:46;;;;;;;41.60;27.95;;;;;;;6.25;77.40;103317.81;3584871;40;20068;-62
2022/01/23 06:04:12;;;;;;;44.20;28.58;;;;;;;6.25;77.95;103315.13;3583853;40;20044;-62
2022/01/23 06:06:38;;;;;;;42.40;29.27;;;;;;;6.26;78.11;103311.56;3585872;40;20049;-62
2022/01/23 06:09:04;;;;;;;38.97;27.83;;;;;;;6.26;77.49;103308.88;3585466;40;20048;-62
2022/01/23 06:11:30;;;;;;;39.08;28.67;;;;;;;6.19;77.56;103304.47;3585335;40;20087;-62
2022/01/23 06:13:56;;;;;;;41.58;28.58;;;;;;;6.27;77.92;103312.44;3575316;40;20060;-62
2022/01/23 06:16:22;;;;;;;39.92;28.20;;;;;;;6.21;77.37;103304.44;3571849;40;20088;-62
2022/01/23 06:18:47;;;;;;;40.00;29.23;;;;;;;6.05;77.91;103279.59;3585434;40;20048;-62
2022/01/23 06:21:18;;;;;;;44.03;29.17;;;;;;;6.25;77.33;103317.81;3584919;40;20052;-61
2022/01/23 06:23:43;;;;;;;42.30;29.92;;;;;;;6.15;77.71;103315.16;3585357;40;20121;-62
2022/01/23 06:26:09;;;;;;;42.40;29.42;;;;;;;6.16;77.61;103311.59;3585489;40;20295;-62
2022/01/23 06:29:00;;;;;;;46.97;29.23;;;;;;;6.18;78.36;103329.38;3585255;40;20056;-62
2022/01/23 06:31:25;;;;;;;46.05;31.45;;;;;;;6.16;78.30;103317.84;3584637;40;20040;-62
2022/01/23 06:33:51;;;;;;;44.20;30.02;;;;;;;6.19;78.27;103320.50;3585351;40;20056;-62
2022/01/23 06:36:17;;;;;;;43.13;30.05;;;;;;;6.17;78.12;103316.03;3584632;40;20054;-62
2022/01/23 06:38:43;;;;;;;43.90;29.52;;;;;;;6.16;78.15;103301.81;3584988;40;20048;-62
2022/01/23 06:41:08;;;;;;;42.80;30.27;;;;;;;6.19;77.70;103311.59;3585161;40;20048;-62
2022/01/23 06:43:34;;;;;;;43.85;29.60;;;;;;;6.23;77.61;103324.91;3585161;40;20377;-62
2022/01/23 06:46:00;;;;;;;42.55;29.38;;;;;;;6.16;77.30;103323.16;3585317;40;20055;-62
2022/01/23 06:48:25;;;;;;;44.35;30.38;;;;;;;6.14;77.60;103330.28;3584649;40;20378;-61
2022/01/23 06:50:51;;;;;;;42.40;30.08;;;;;;;6.16;78.42;103331.19;3584701;40;20076;-61
2022/01/23 06:53:16;;;;;;;42.80;29.88;;;;;;;6.13;78.04;103335.66;3586077;40;20052;-64
2022/01/23 06:55:42;;;;;;;41.95;30.27;;;;;;;6.09;78.09;103326.75;3585768;40;20149;-61
2022/01/23 06:58:08;;;;;;;43.67;30.13;;;;;;;6.08;78.74;103322.28;3585076;40;20052;-61
2022/01/23 07:00:34;;;;;;;43.10;29.85;;;;;;;5.97;78.00;103305.44;3584852;40;20075;-62
2022/01/23 07:03:00;;;;;;;45.08;30.08;;;;;;;6.11;78.82;103334.75;3574877;40;20056;-62
2022/01/23 07:05:26;;;;;;;47.03;29.50;;;;;;;5.96;78.83;103319.66;3575263;40;20766;-62
2022/01/23 07:07:52;;;;;;;45.13;30.45;;;;;;;6.08;78.74;103346.31;3585056;40;20088;-62
2022/01/23 07:10:20;;;;;;;44.97;29.92;;;;;;;5.87;78.52;103314.31;3584646;40;20069;-62
2022/01/23 07:12:45;;;;;;;47.67;30.88;;;;;;;6.00;78.03;103333.00;3584819;40;20048;-62
2022/01/23 07:15:11;;;;;;;46.20;31.52;;;;;;;5.94;78.54;103322.34;3584770;40;20059;-61
2022/01/23 07:17:43;;;;;;;45.90;31.20;;;;;;;6.07;78.76;103349.91;3581132;40;20056;-62
2022/01/23 07:20:10;;;;;;;44.63;29.73;;;;;;;5.87;78.29;103328.56;3584710;40;20056;-62
2022/01/23 07:22:35;;;;;;;43.15;30.17;;;;;;;6.05;78.59;103357.00;3586662;40;20054;-62
2022/01/23 07:25:03;;;;;;;45.50;30.95;;;;;;;6.07;78.82;103365.91;3588764;40;20056;-61
2022/01/23 07:27:36;;;;;;;53.13;31.50;;;;;;;5.96;78.59;103359.69;3588334;40;20044;-61
2022/01/23 07:30:05;;;;;;;46.28;31.85;;;;;;;6.04;78.62;103365.94;3585346;40;20055;-62
2022/01/23 07:32:30;;;;;;;45.47;32.30;;;;;;;6.11;78.59;103373.03;3584534;40;20093;-62
2022/01/23 07:34:56;;;;;;;45.42;30.15;;;;;;;6.11;78.65;103378.38;3575506;40;20383;-61
2022/01/23 07:37:22;;;;;;;45.42;30.23;;;;;;;6.12;78.11;103379.25;3584176;40;20048;-62
2022/01/23 07:39:47;;;;;;;49.33;32.08;;;;;;;6.11;78.00;103372.13;3583990;40;20056;-61
2022/01/23 07:42:13;;;;;;;45.40;30.50;;;;;;;6.15;77.85;103384.59;3584728;40;20308;-61
2022/01/23 07:44:38;;;;;;;47.00;31.05;;;;;;;6.07;78.00;103370.38;3584741;40;20048;-62
2022/01/23 07:47:04;;;;;;;49.45;31.58;;;;;;;6.16;78.22;103383.72;3584664;40;20057;-61
2022/01/23 07:49:30;;;;;;;48.53;32.97;;;;;;;6.15;77.82;103390.84;3583186;40;20052;-64
2022/01/23 07:51:57;;;;;;;48.15;31.85;;;;;;;6.17;78.10;103393.50;3585167;40;20055;-62
2022/01/23 07:54:23;;;;;;;44.45;30.20;;;;;;;6.17;78.11;103394.38;3584087;40;20064;-62
2022/01/23 07:56:49;;;;;;;44.97;32.55;;;;;;;6.18;78.27;103393.47;3584248;40;20137;-62
2022/01/23 07:59:15;;;;;;;44.55;30.85;;;;;;;6.18;78.06;103395.25;3584593;40;20394;-62
2022/01/23 08:01:40;;;;;;;43.80;31.52;;;;;;;6.22;77.73;103400.59;3584077;40;20048;-62
2022/01/23 08:04:07;;;;;;;47.83;32.47;;;;;;;6.25;77.59;103402.38;3584388;40;20056;-61
2022/01/23 08:06:40;;;;;;;50.20;32.30;;;;;;;6.19;77.74;103392.59;3584490;40;20074;-62
2022/01/23 08:09:07;;;;;;;46.28;30.67;;;;;;;6.18;77.82;103379.22;3583761;40;20368;-62
2022/01/23 08:11:33;;;;;;;50.28;31.77;;;;;;;6.25;77.62;103400.59;3586262;40;20056;-63
2022/01/23 08:13:59;;;;;;;48.95;32.38;;;;;;;6.27;77.67;103389.91;3586043;40;20137;-63
2022/01/23 08:16:24;;;;;;;48.10;31.20;;;;;;;6.29;78.34;103393.47;3585901;40;20067;-63
2022/01/23 08:18:50;;;;;;;44.33;31.83;;;;;;;6.31;77.59;103397.00;3586139;40;20131;-63
2022/01/23 08:21:15;;;;;;;44.75;30.85;;;;;;;6.34;77.72;103409.47;3586650;40;20149;-63
2022/01/23 08:23:41;;;;;;;46.20;32.35;;;;;;;6.32;77.71;103400.59;3584955;40;20052;-63
2022/01/23 08:26:08;;;;;;;47.33;31.98;;;;;;;6.30;77.74;103405.03;3586130;40;20062;-62
2022/01/23 08:28:34;;;;;;;45.97;31.70;;;;;;;6.27;78.09;103396.13;3586880;40;20052;-62
2022/01/23 08:31:00;;;;;;;45.45;31.83;;;;;;;6.23;77.63;103398.81;3586037;40;20040;-62
2022/01/23 08:33:27;;;;;;;46.58;32.65;;;;;;;6.28;77.68;103403.28;3586556;40;20060;-62
2022/01/23 08:35:56;;;;;;;49.33;32.20;;;;;;;6.25;77.49;103392.59;3586678;40;20059;-63
2022/01/23 08:38:23;;;;;;;46.65;31.58;;;;;;;6.28;78.31;103400.59;3585955;40;20094;-62
2022/01/23 08:41:49;;;;;;;47.55;32.67;;;;;;;6.26;78.41;103404.16;3586398;40;20417;-63
2022/01/23 08:43:34;;;;;;;48.38;31.83;;;;;;;6.32;77.97;103420.16;3586254;40;20585;-62
2022/01/23 08:46:00;;;;;;;45.20;30.88;;;;;;;6.38;78.23;103432.63;3584668;40;20075;-61
2022/01/23 08:48:26;;;;;;;45.85;32.25;;;;;;;6.40;77.99;103422.81;3585896;40;20070;-62
2022/01/23 08:50:52;;;;;;;45.63;31.90;;;;;;;6.25;77.26;103408.63;3586356;40;20054;-62
2022/01/23 08:53:17;;;;;;;47.03;32.00;;;;;;;6.38;77.50;103425.50;3584690;40;20059;-63
2022/01/23 08:55:43;;;;;;;43.13;31.08;;;;;;;6.36;76.99;103418.38;3586026;40;20596;-61
2022/01/23 08:58:08;;;;;;;43.67;31.13;;;;;;;6.42;76.80;103437.06;3585898;40;20057;-62
2022/01/23 09:00:34;;;;;;;48.55;33.17;;;;;;;6.42;76.96;103431.72;3581166;40;20140;-62
2022/01/23 09:03:00;;;;;;;47.30;32.83;;;;;;;6.44;77.23;103436.19;3586373;40;20056;-62
2022/01/23 09:05:27;;;;;;;48.00;32.75;;;;;;;6.46;77.55;103434.38;3585661;40;20063;-62
2022/01/23 09:07:54;;;;;;;47.88;32.88;;;;;;;6.47;76.92;103429.91;3586047;40;20063;-62
2022/01/23 09:10:28;;;;;;;46.67;31.35;;;;;;;6.53;76.66;103427.22;3586062;40;20080;-63
2022/01/23 09:13:06;;;;;;;43.72;31.70;;;;;;;6.55;77.20;103428.13;3586346;40;20307;-62
2022/01/23 09:15:32;;;;;;;44.15;31.05;;;;;;;6.48;77.19;103413.00;3586372;40;20044;-62
2022/01/23 09:17:58;;;;;;;44.63;32.60;;;;;;;6.56;76.88;103416.53;3586059;40;20395;-63
2022/01/23 09:20:24;;;;;;;42.58;31.15;;;;;;;6.60;76.34;103417.44;3576689;40;20090;-62
2022/01/23 09:22:49;;;;;;;44.90;32.55;;;;;;;6.57;76.75;103415.66;3584568;40;20067;-62
2022/01/23 09:25:16;;;;;;;47.30;32.47;;;;;;;6.60;77.43;103415.63;3585346;40;20064;-63
2022/01/23 09:27:41;;;;;;;47.00;32.45;;;;;;;6.61;76.90;103417.41;3585552;40;20052;-62
2022/01/23 09:30:17;;;;;;;47.53;32.10;;;;;;;6.69;76.50;103420.97;3586068;40;20051;-62
2022/01/23 09:32:44;;;;;;;44.85;31.40;;;;;;;6.67;76.68;103412.03;3583023;40;20098;-62
2022/01/23 09:35:10;;;;;;;45.95;31.75;;;;;;;6.78;76.47;103430.69;3585318;40;20056;-61
2022/01/23 09:37:36;;;;;;;48.67;33.97;;;;;;;6.78;77.34;103429.81;3585737;40;20059;-62
2022/01/23 09:40:05;;;;;;;46.55;33.40;;;;;;;6.64;76.68;103396.00;3585663;40;20060;-62
2022/01/23 09:42:41;;;;;;;48.83;33.97;;;;;;;6.82;76.99;103426.22;3585793;40;20058;-63
2022/01/23 09:45:12;;;;;;;47.42;33.15;;;;;;;6.84;76.55;103425.31;3585646;40;20087;-63
2022/01/23 09:47:40;;;;;;;46.63;31.63;;;;;;;6.93;76.52;103430.63;3587078;40;20048;-61
2022/01/23 09:50:10;;;;;;;46.08;31.77;;;;;;;6.92;76.37;103431.53;3585505;40;20068;-61
2022/01/23 09:52:39;;;;;;;46.55;31.42;;;;;;;6.98;76.02;103439.53;3575716;40;20056;-63
2022/01/23 09:55:10;;;;;;;43.25;31.02;;;;;;;7.01;75.54;103441.31;3586339;40;20134;-61
2022/01/23 09:57:41;;;;;;;44.08;31.80;;;;;;;7.04;76.19;103446.66;3582150;40;20064;-62
2022/01/23 10:00:13;;;;;;;45.53;29.60;;;;;;;7.07;75.98;103443.03;3585675;40;20060;-63
2022/01/23 10:02:43;;;;;;;44.80;31.17;;;;;;;7.09;75.59;103446.59;3572049;40;20055;-63
2022/01/23 10:05:09;;;;;;;43.80;31.45;;;;;;;7.11;75.14;103439.47;3585122;40;20415;-62
2022/01/23 10:07:41;;;;;;;41.97;30.17;;;;;;;7.15;74.94;103449.25;3582131;40;20052;-63
2022/01/23 10:10:14;;;;;;;43.45;31.27;;;;;;;7.16;74.87;103451.91;3585124;40;20288;-62
2022/01/23 10:12:54;;;;;;;42.13;30.55;;;;;;;7.18;75.30;103447.44;3582554;40;20307;-62
2022/01/23 10:15:21;;;;;;;42.63;30.27;;;;;;;7.14;74.01;103435.00;3585182;40;20045;-62
2022/01/23 10:17:47;;;;;;;40.88;30.25;;;;;;;7.23;74.76;103452.78;3576089;40;20060;-64
2022/01/23 10:20:15;;;;;;;42.75;30.58;;;;;;;7.24;74.84;103453.69;3585777;40;20047;-62
2022/01/23 10:22:45;;;;;;;44.90;31.75;;;;;;;7.20;74.46;103443.00;3584451;40;20089;-62
2022/01/23 10:25:22;;;;;;;42.05;30.23;;;;;;;7.32;74.86;103441.13;3583833;40;20118;-63
2022/01/23 10:28:18;;;;;;;43.70;29.33;;;;;;;7.37;74.58;103437.53;3574360;40;20473;-62
2022/01/23 10:30:49;;;;;;;39.83;29.75;;;;;;;7.41;74.40;103439.28;3560561;40;20171;-62
2022/01/23 10:33:19;;;;;;;42.03;31.33;;;;;;;7.44;74.83;103438.38;3562747;40;20059;-62
2022/01/23 10:36:17;;;;;;;43.17;29.73;;;;;;;7.30;74.48;103406.38;3562340;40;20057;-62
2022/01/23 10:38:59;;;;;;;39.17;29.45;;;;;;;7.49;74.01;103435.69;3562985;40;20056;-63
2022/01/23 10:47:32;;;;;;;41.88;29.98;;;;;;;7.61;74.36;103438.25;3552407;40;20193;-63
2022/01/23 10:50:09;;;;;;;40.53;29.45;;;;;;;7.61;73.21;103441.84;3584868;40;20051;-62
2022/01/23 10:52:43;;;;;;;40.65;29.08;;;;;;;7.67;74.35;103438.19;3575490;40;20063;-63
2022/01/23 10:55:31;;;;;;;41.28;29.35;;;;;;;7.64;73.67;103431.09;3584807;40;20080;-62
2022/01/23 10:58:02;;;;;;;38.78;28.77;;;;;;;7.70;72.82;103435.50;3582963;40;20063;-62
2022/01/23 11:00:38;;;;;;;39.70;29.98;;;;;;;7.72;73.36;103428.34;3584436;40;20121;-62
2022/01/23 11:03:17;;;;;;;38.78;28.77;;;;;;;7.79;73.02;103431.88;3585140;40;20452;-62
2022/01/23 11:05:44;;;;;;;40.22;28.73;;;;;;;7.79;73.22;103439.91;3583018;40;20052;-62
2022/01/23 11:08:31;;;;;;;42.45;29.15;;;;;;;7.75;73.71;103427.44;3584504;40;20061;-62
2022/01/23 11:11:06;;;;;;;40.55;29.13;;;;;;;7.78;72.16;103433.66;3583131;40;20055;-62
2022/01/23 11:19:39;;;;;;;38.88;29.73;;;;;;;7.80;72.48;103404.19;3584683;40;20084;-63
2022/01/23 11:22:06;;;;;;;45.28;30.17;;;;;;;7.81;73.26;103419.38;3584575;40;20398;-64
2022/01/23 11:24:42;;;;;;;40.47;29.88;;;;;;;7.85;73.37;103419.31;3584340;40;20084;-62
2022/01/23 11:27:08;;;;;;;41.42;31.30;;;;;;;7.81;73.11;103408.66;3584508;40;20048;-62
2022/01/23 11:29:34;;;;;;;44.45;32.38;;;;;;;7.74;73.28;103393.53;3581171;40;20063;-62
2022/01/23 11:32:01;;;;;;;42.90;31.55;;;;;;;7.90;72.74;103421.97;3585050;40;20056;-62
2022/01/23 11:34:29;;;;;;;44.60;31.90;;;;;;;7.85;73.42;103402.34;3584339;40;20108;-63
2022/01/23 11:36:55;;;;;;;44.35;32.55;;;;;;;7.93;73.56;103411.22;3573790;40;20455;-63
2022/01/23 11:39:39;;;;;;;41.45;30.67;;;;;;;7.92;72.78;103409.44;3583972;40;20115;-63
2022/01/23 11:56:24;;;;;;;41.10;30.40;;;;;;;7.91;72.75;103399.63;3584671;40;19931;-62
2022/01/23 11:59:09;;;;;;;40.42;29.90;;;;;;;7.93;72.29;103400.50;3584396;40;20044;-62
2022/01/23 12:01:35;;;;;;;37.70;28.42;;;;;;;7.93;71.69;103395.16;3584862;40;20328;-62
2022/01/23 12:04:20;;;;;;;38.58;28.10;;;;;;;7.91;72.06;103381.75;3573350;40;20125;-63
2022/01/23 12:07:12;;;;;;;40.42;30.10;;;;;;;7.99;71.51;103397.78;3581555;40;20398;-62
2022/01/23 12:10:03;;;;;;;41.30;28.08;;;;;;;8.02;71.59;103392.34;3582989;40;20367;-63
2022/01/23 12:18:20;;;;;;;37.05;28.63;;;;;;;8.03;71.59;103371.84;3584431;40;20401;-62
2022/01/23 12:20:49;;;;;;;37.45;27.00;;;;;;;8.14;70.01;103378.84;3582313;40;20098;-62
2022/01/23 12:23:16;;;;;;;39.10;27.50;;;;;;;8.18;70.33;103379.69;3583034;40;20044;-62
2022/01/23 12:25:49;;;;;;;33.72;26.05;;;;;;;8.19;69.25;103375.25;3584370;40;20054;-63
2022/01/23 12:28:28;;;;;;;38.00;25.85;;;;;;;8.22;69.85;103372.53;3584191;40;20092;-63
2022/01/23 12:31:13;;;;;;;33.55;25.67;;;;;;;8.22;69.46;103383.25;3584345;40;20052;-62
2022/01/23 12:33:41;;;;;;;36.22;25.20;;;;;;;8.23;69.89;103376.97;3584894;40;20078;-63
2022/01/23 12:36:14;;;;;;;36.05;24.58;;;;;;;8.22;68.96;103381.47;3584306;40;20044;-62
2022/01/23 12:39:08;;;;;;;33.55;25.90;;;;;;;8.21;68.98;103378.78;3582755;40;20080;-63
2022/01/23 12:41:51;;;;;;;36.85;26.60;;;;;;;8.20;69.19;103367.19;3579219;40;20126;-64
2022/01/23 12:44:22;;;;;;;37.38;28.08;;;;;;;8.21;70.27;103378.78;3584920;40;20165;-63
2022/01/23 12:46:57;;;;;;;41.10;29.17;;;;;;;8.11;70.29;103352.09;3584263;40;20044;-63
2022/01/23 12:49:28;;;;;;;41.20;29.23;;;;;;;8.14;70.49;103352.06;3584363;40;20089;-64
2022/01/23 12:52:05;;;;;;;39.05;28.42;;;;;;;8.21;69.59;103368.06;3584970;40;20040;-63
2022/01/23 12:54:55;;;;;;;40.92;29.13;;;;;;;8.17;69.40;103364.53;3585691;40;20092;-62
2022/01/23 12:57:40;;;;;;;39.58;29.48;;;;;;;8.14;69.19;103362.75;3586164;40;20270;-63
2022/01/23 13:00:24;;;;;;;38.45;28.17;;;;;;;8.14;69.03;103352.06;3585949;40;20044;-62
2022/01/23 13:02:52;;;;;;;40.53;28.77;;;;;;;8.10;69.65;103344.06;3583723;40;20055;-62
2022/01/23 13:05:19;;;;;;;40.97;28.88;;;;;;;8.21;70.26;103350.19;3585936;40;20048;-62
2022/01/23 13:08:05;;;;;;;42.03;28.33;;;;;;;7.95;69.15;103296.91;3586178;40;20051;-64
2022/01/23 13:13:26;;;;;;;38.83;28.30;;;;;;;8.27;69.54;103347.44;3584826;40;20145;-62
2022/01/23 13:18:50;;;;;;;36.95;27.35;;;;;;;8.16;69.52;103316.34;3583200;40;20076;-63
2022/01/23 13:32:36;;;;;;;39.95;29.75;;;;;;;8.34;69.76;103330.41;3585522;40;20052;-64
2022/01/23 13:35:09;;;;;;;42.58;29.63;;;;;;;8.38;70.29;103344.69;3585475;40;20062;-62
2022/01/23 13:37:40;;;;;;;42.35;30.48;;;;;;;8.41;69.98;103339.28;3586026;40;20060;-63
2022/01/23 13:40:14;;;;;;;42.67;30.83;;;;;;;8.27;70.23;103315.28;3584764;40;20291;-62
2022/01/23 13:47:52;;;;;;;40.28;29.50;;;;;;;8.35;69.62;103339.31;3585807;40;20346;-63
2022/01/23 13:51:42;;;;;;;39.13;28.63;;;;;;;8.34;69.88;103343.81;3567530;40;20056;-63
2022/01/23 13:57:40;;;;;;;38.00;29.08;;;;;;;8.31;69.46;103326.88;3585518;40;20040;-62
2022/01/23 14:02:32;;;;;;;41.50;30.15;;;;;;;8.33;70.81;103325.94;3586013;40;20068;-63
2022/01/23 14:05:22;;;;;;;43.38;29.70;;;;;;;8.29;69.81;103312.59;3576175;40;20050;-62
2022/01/23 14:07:58;;;;;;;43.38;31.73;;;;;;;8.30;69.19;103319.72;3583490;40;20098;-63
2022/01/23 14:10:31;;;;;;;38.28;28.85;;;;;;;8.30;69.84;103312.56;3585081;40;20087;-63
2022/01/23 14:13:14;;;;;;;41.57;29.43;;;;;;;8.18;69.38;103293.06;3584535;40;20379;-62
2022/01/23 14:15:53;;;;;;;44.17;29.13;;;;;;;8.27;69.08;103309.91;3585604;40;20531;-61
2022/01/23 14:18:30;;;;;;;38.60;27.35;;;;;;;8.28;69.27;103309.03;3570384;40;20126;-63
2022/01/23 14:21:05;;;;;;;38.35;26.55;;;;;;;8.31;69.53;103321.53;3573868;40;20037;-63
2022/01/23 14:23:34;;;;;;;38.40;27.75;;;;;;;8.31;69.85;103317.03;3585414;40;20060;-64
2022/01/23 14:26:07;;;;;;;39.13;28.25;;;;;;;8.33;69.91;103322.38;3585657;40;20408;-62
2022/01/23 14:28:46;;;;;;;37.30;28.02;;;;;;;8.35;69.24;103325.94;3584662;40;20056;-61
2022/01/23 14:31:22;;;;;;;39.33;28.27;;;;;;;8.30;68.89;103327.75;3575275;40;20049;-63
2022/01/23 14:33:56;;;;;;;41.47;29.00;;;;;;;8.30;69.46;103333.13;3583411;40;20052;-63
2022/01/23 14:36:30;;;;;;;39.13;27.90;;;;;;;8.29;69.97;103332.25;3585617;40;20638;-62
2022/01/23 14:39:11;;;;;;;38.03;26.23;;;;;;;8.28;68.77;103332.28;3586206;40;20180;-63
2022/01/23 14:41:42;;;;;;;36.88;24.67;;;;;;;8.31;68.17;103333.13;3573316;40;20044;-63
2022/01/23 14:44:23;;;;;;;34.42;25.20;;;;;;;8.31;68.39;103340.28;3575863;40;20137;-62
2022/01/23 14:46:53;;;;;;;33.50;25.58;;;;;;;8.31;68.36;103338.47;3583646;40;20052;-63
2022/01/23 14:49:23;;;;;;;36.90;24.33;;;;;;;8.32;68.52;103331.31;3585714;40;20052;-61
2022/01/23 14:51:52;;;;;;;32.80;23.52;;;;;;;8.30;67.68;103333.13;3585642;40;20306;-63
2022/01/23 14:54:20;;;;;;;33.50;25.02;;;;;;;8.12;68.50;103304.78;3574567;40;20057;-63
2022/01/23 14:56:46;;;;;;;37.50;26.83;;;;;;;8.25;69.12;103335.00;3585269;40;20059;-63